sensor_id;sensor_type;location;lat;lon;timestamp;P1;durP1;ratioP1;P2;durP2;ratioP2
51527;SDS011;37612;51.768;21.590;2023-03-01T00:03:24;82.40;;;33.10;;
51527;SDS011;37612;51.768;21.590;2023-03-01T00:07:26;85.60;;;34.40;;
51527;SDS011;37612;51.768;21.590;2023-03-01T00:11:28;101.40;;;44.70;;
51527;SDS011;37612;51.768;21.590;2023-03-01T00:15:31;98.30;;;41.70;;
51527;SDS011;37612;51.768;21.590;2023-03-01T00:19:33;80.90;;;34.70;;
51527;SDS011;37612;51.768;21.590;2023-03-01T00:23:35;79.10;;;33.30;;
51527;SDS011;37612;51.768;21.590;2023-03-01T00:27:36;77.90;;;34.20;;
51527;SDS011;37612;51.768;21.590;2023-03-01T00:31:37;107.60;;;45.10;;
51527;SDS011;37612;51.768;21.590;2023-03-01T00:35:38;107.40;;;41.90;;
51527;SDS011;37612;51.768;21.590;2023-03-01T00:39:40;82.20;;;34.20;;
51527;SDS011;37612;51.768;21.590;2023-03-01T00:43:41;82.20;;;36.00;;
51527;SDS011;37612;51.768;21.590;2023-03-01T00:47:43;80.70;;;33.10;;
51527;SDS011;37612;51.768;21.590;2023-03-01T00:51:44;77.40;;;33.40;;
51527;SDS011;37612;51.768;21.590;2023-03-01T00:55:46;99.90;;;42.80;;
51527;SDS011;37612;51.768;21.590;2023-03-01T00:59:47;99.60;;;42.10;;
51527;SDS011;37612;51.768;21.590;2023-03-01T01:03:50;74.60;;;34.30;;
51527;SDS011;37612;51.768;21.590;2023-03-01T01:07:56;75.50;;;34.20;;
51527;SDS011;37612;51.768;21.590;2023-03-01T01:11:58;69.40;;;31.20;;
51527;SDS011;37612;51.768;21.590;2023-03-01T01:16:02;88.50;;;39.90;;
51527;SDS011;37612;51.768;21.590;2023-03-01T01:20:04;97.00;;;41.40;;
51527;SDS011;37612;51.768;21.590;2023-03-01T01:24:05;81.10;;;35.10;;
51527;SDS011;37612;51.768;21.590;2023-03-01T01:28:07;88.10;;;35.10;;
51527;SDS011;37612;51.768;21.590;2023-03-01T01:32:08;77.60;;;33.30;;
51527;SDS011;37612;51.768;21.590;2023-03-01T01:36:09;98.60;;;40.00;;
51527;SDS011;37612;51.768;21.590;2023-03-01T01:40:11;77.90;;;33.70;;
51527;SDS011;37612;51.768;21.590;2023-03-01T01:44:15;80.00;;;35.30;;
51527;SDS011;37612;51.768;21.590;2023-03-01T01:48:23;77.20;;;32.60;;
51527;SDS011;37612;51.768;21.590;2023-03-01T01:52:41;74.00;;;31.50;;
51527;SDS011;37612;51.768;21.590;2023-03-01T01:56:44;96.10;;;40.60;;
51527;SDS011;37612;51.768;21.590;2023-03-01T02:00:50;86.20;;;37.20;;
51527;SDS011;37612;51.768;21.590;2023-03-01T02:04:52;74.00;;;32.50;;
51527;SDS011;37612;51.768;21.590;2023-03-01T02:13:12;84.00;;;34.00;;
51527;SDS011;37612;51.768;21.590;2023-03-01T02:17:15;98.30;;;41.10;;
51527;SDS011;37612;51.768;21.590;2023-03-01T02:29:41;78.10;;;32.20;;
51527;SDS011;37612;51.768;21.590;2023-03-01T02:33:44;65.40;;;28.60;;
51527;SDS011;37612;51.768;21.590;2023-03-01T02:37:46;95.50;;;41.60;;
51527;SDS011;37612;51.768;21.590;2023-03-01T02:41:50;85.70;;;37.20;;
51527;SDS011;37612;51.768;21.590;2023-03-01T02:45:57;70.50;;;31.00;;
51527;SDS011;37612;51.768;21.590;2023-03-01T02:50:00;73.50;;;31.50;;
51527;SDS011;37612;51.768;21.590;2023-03-01T02:58:16;82.80;;;37.50;;
51527;SDS011;37612;51.768;21.590;2023-03-01T03:02:24;79.90;;;34.10;;
51527;SDS011;37612;51.768;21.590;2023-03-01T03:06:39;68.40;;;32.30;;
51527;SDS011;37612;51.768;21.590;2023-03-01T03:10:40;80.90;;;32.10;;
51527;SDS011;37612;51.768;21.590;2023-03-01T03:14:43;68.60;;;28.80;;
51527;SDS011;37612;51.768;21.590;2023-03-01T03:18:45;77.20;;;34.40;;
51527;SDS011;37612;51.768;21.590;2023-03-01T03:22:46;103.20;;;41.90;;
51527;SDS011;37612;51.768;21.590;2023-03-01T03:26:49;76.70;;;34.50;;
51527;SDS011;37612;51.768;21.590;2023-03-01T03:30:50;64.60;;;30.60;;
51527;SDS011;37612;51.768;21.590;2023-03-01T03:34:51;72.90;;;31.10;;
51527;SDS011;37612;51.768;21.590;2023-03-01T03:38:53;70.00;;;31.50;;
51527;SDS011;37612;51.768;21.590;2023-03-01T03:42:54;82.60;;;36.20;;
51527;SDS011;37612;51.768;21.590;2023-03-01T03:46:56;78.20;;;33.90;;
51527;SDS011;37612;51.768;21.590;2023-03-01T03:50:57;65.70;;;30.50;;
51527;SDS011;37612;51.768;21.590;2023-03-01T03:54:58;61.80;;;23.70;;
51527;SDS011;37612;51.768;21.590;2023-03-01T03:58:59;67.30;;;29.00;;
51527;SDS011;37612;51.768;21.590;2023-03-01T04:03:00;57.50;;;26.80;;
51527;SDS011;37612;51.768;21.590;2023-03-01T04:07:02;93.90;;;37.50;;
51527;SDS011;37612;51.768;21.590;2023-03-01T04:11:04;90.10;;;36.50;;
51527;SDS011;37612;51.768;21.590;2023-03-01T04:15:25;65.60;;;29.60;;
51527;SDS011;37612;51.768;21.590;2023-03-01T04:19:29;70.90;;;30.00;;
51527;SDS011;37612;51.768;21.590;2023-03-01T04:23:30;68.90;;;28.70;;
51527;SDS011;37612;51.768;21.590;2023-03-01T04:27:34;64.30;;;27.00;;
51527;SDS011;37612;51.768;21.590;2023-03-01T04:31:36;102.20;;;37.60;;
51527;SDS011;37612;51.768;21.590;2023-03-01T04:35:38;92.10;;;38.30;;
51527;SDS011;37612;51.768;21.590;2023-03-01T04:39:41;73.50;;;32.00;;
51527;SDS011;37612;51.768;21.590;2023-03-01T04:43:46;64.60;;;29.40;;
51527;SDS011;37612;51.768;21.590;2023-03-01T04:51:50;75.40;;;29.50;;
51527;SDS011;37612;51.768;21.590;2023-03-01T04:55:51;70.30;;;30.10;;
51527;SDS011;37612;51.768;21.590;2023-03-01T04:59:52;93.10;;;37.10;;
51527;SDS011;37612;51.768;21.590;2023-03-01T05:03:53;69.80;;;30.60;;
51527;SDS011;37612;51.768;21.590;2023-03-01T05:07:56;61.90;;;27.00;;
51527;SDS011;37612;51.768;21.590;2023-03-01T05:11:59;56.10;;;25.60;;
51527;SDS011;37612;51.768;21.590;2023-03-01T05:16:01;60.50;;;28.70;;
51527;SDS011;37612;51.768;21.590;2023-03-01T05:20:04;79.50;;;34.60;;
51527;SDS011;37612;51.768;21.590;2023-03-01T05:24:09;70.60;;;32.20;;
51527;SDS011;37612;51.768;21.590;2023-03-01T05:32:13;60.80;;;25.50;;
51527;SDS011;37612;51.768;21.590;2023-03-01T05:36:16;60.30;;;26.10;;
51527;SDS011;37612;51.768;21.590;2023-03-01T05:40:20;78.00;;;30.70;;
51527;SDS011;37612;51.768;21.590;2023-03-01T05:44:23;73.70;;;31.30;;
51527;SDS011;37612;51.768;21.590;2023-03-01T05:48:25;62.40;;;26.70;;
51527;SDS011;37612;51.768;21.590;2023-03-01T05:52:26;61.00;;;27.20;;
51527;SDS011;37612;51.768;21.590;2023-03-01T05:56:28;62.40;;;30.90;;
51527;SDS011;37612;51.768;21.590;2023-03-01T06:00:37;62.00;;;28.70;;
51527;SDS011;37612;51.768;21.590;2023-03-01T06:04:49;68.40;;;31.80;;
51527;SDS011;37612;51.768;21.590;2023-03-01T06:09:26;63.70;;;29.30;;
51527;SDS011;37612;51.768;21.590;2023-03-01T06:13:41;62.70;;;26.90;;
51527;SDS011;37612;51.768;21.590;2023-03-01T06:17:48;51.70;;;24.60;;
51527;SDS011;37612;51.768;21.590;2023-03-01T06:21:50;58.50;;;25.90;;
51527;SDS011;37612;51.768;21.590;2023-03-01T06:25:52;54.90;;;24.10;;
51527;SDS011;37612;51.768;21.590;2023-03-01T06:29:53;67.30;;;30.00;;
51527;SDS011;37612;51.768;21.590;2023-03-01T06:34:01;64.30;;;27.20;;
51527;SDS011;37612;51.768;21.590;2023-03-01T06:38:03;59.10;;;26.30;;
51527;SDS011;37612;51.768;21.590;2023-03-01T06:42:07;62.70;;;25.70;;
51527;SDS011;37612;51.768;21.590;2023-03-01T06:46:45;49.90;;;21.60;;
51527;SDS011;37612;51.768;21.590;2023-03-01T06:51:07;50.50;;;23.70;;
51527;SDS011;37612;51.768;21.590;2023-03-01T06:55:19;62.20;;;25.90;;
51527;SDS011;37612;51.768;21.590;2023-03-01T06:59:27;56.40;;;25.70;;
51527;SDS011;37612;51.768;21.590;2023-03-01T07:03:38;49.80;;;22.30;;
51527;SDS011;37612;51.768;21.590;2023-03-01T07:07:40;52.70;;;23.40;;
51527;SDS011;37612;51.768;21.590;2023-03-01T07:11:41;45.40;;;20.50;;
51527;SDS011;37612;51.768;21.590;2023-03-01T07:15:42;50.30;;;23.10;;
51527;SDS011;37612;51.768;21.590;2023-03-01T07:19:43;51.20;;;23.20;;
51527;SDS011;37612;51.768;21.590;2023-03-01T07:23:47;48.40;;;22.20;;
51527;SDS011;37612;51.768;21.590;2023-03-01T07:27:53;46.90;;;21.10;;
51527;SDS011;37612;51.768;21.590;2023-03-01T07:31:56;44.20;;;21.70;;
51527;SDS011;37612;51.768;21.590;2023-03-01T07:35:58;42.20;;;21.90;;
51527;SDS011;37612;51.768;21.590;2023-03-01T07:40:01;48.90;;;21.20;;
51527;SDS011;37612;51.768;21.590;2023-03-01T07:44:03;46.40;;;21.60;;
51527;SDS011;37612;51.768;21.590;2023-03-01T07:48:05;48.60;;;20.80;;
51527;SDS011;37612;51.768;21.590;2023-03-01T07:52:06;42.00;;;18.40;;
51527;SDS011;37612;51.768;21.590;2023-03-01T07:56:08;41.80;;;18.80;;
51527;SDS011;37612;51.768;21.590;2023-03-01T08:00:11;44.20;;;19.50;;
51527;SDS011;37612;51.768;21.590;2023-03-01T08:04:13;44.10;;;20.50;;
51527;SDS011;37612;51.768;21.590;2023-03-01T08:08:14;36.70;;;17.70;;
51527;SDS011;37612;51.768;21.590;2023-03-01T08:12:15;45.60;;;20.80;;
51527;SDS011;37612;51.768;21.590;2023-03-01T08:16:19;63.50;;;29.90;;
51527;SDS011;37612;51.768;21.590;2023-03-01T08:20:21;37.80;;;18.50;;
51527;SDS011;37612;51.768;21.590;2023-03-01T08:24:22;34.30;;;17.60;;
51527;SDS011;37612;51.768;21.590;2023-03-01T08:28:23;64.80;;;28.80;;
51527;SDS011;37612;51.768;21.590;2023-03-01T08:32:24;46.20;;;23.10;;
51527;SDS011;37612;51.768;21.590;2023-03-01T08:36:30;39.90;;;18.60;;
51527;SDS011;37612;51.768;21.590;2023-03-01T08:40:33;39.00;;;18.90;;
51527;SDS011;37612;51.768;21.590;2023-03-01T08:44:34;35.70;;;18.30;;
51527;SDS011;37612;51.768;21.590;2023-03-01T08:48:36;38.70;;;17.80;;
51527;SDS011;37612;51.768;21.590;2023-03-01T08:52:37;39.80;;;22.60;;
51527;SDS011;37612;51.768;21.590;2023-03-01T08:56:38;32.30;;;17.80;;
51527;SDS011;37612;51.768;21.590;2023-03-01T09:00:39;31.60;;;16.60;;
51527;SDS011;37612;51.768;21.590;2023-03-01T09:04:41;31.70;;;16.30;;
51527;SDS011;37612;51.768;21.590;2023-03-01T09:08:43;28.60;;;15.50;;
51527;SDS011;37612;51.768;21.590;2023-03-01T09:12:46;35.60;;;17.00;;
51527;SDS011;37612;51.768;21.590;2023-03-01T09:16:47;27.30;;;16.30;;
51527;SDS011;37612;51.768;21.590;2023-03-01T09:20:48;28.60;;;14.90;;
51527;SDS011;37612;51.768;21.590;2023-03-01T09:24:49;29.40;;;15.00;;
51527;SDS011;37612;51.768;21.590;2023-03-01T09:28:51;25.20;;;13.20;;
51527;SDS011;37612;51.768;21.590;2023-03-01T09:32:56;25.20;;;13.20;;
51527;SDS011;37612;51.768;21.590;2023-03-01T09:36:58;23.90;;;12.00;;
51527;SDS011;37612;51.768;21.590;2023-03-01T09:45:14;30.60;;;19.40;;
51527;SDS011;37612;51.768;21.590;2023-03-01T09:49:35;21.30;;;10.20;;
51527;SDS011;37612;51.768;21.590;2023-03-01T09:53:40;19.30;;;10.40;;
51527;SDS011;37612;51.768;21.590;2023-03-01T09:57:49;18.90;;;10.80;;
51527;SDS011;37612;51.768;21.590;2023-03-01T10:01:59;20.70;;;9.70;;
51527;SDS011;37612;51.768;21.590;2023-03-01T10:06:04;16.40;;;9.20;;
51527;SDS011;37612;51.768;21.590;2023-03-01T10:10:23;17.50;;;9.00;;
51527;SDS011;37612;51.768;21.590;2023-03-01T10:14:37;18.70;;;9.40;;
51527;SDS011;37612;51.768;21.590;2023-03-01T10:18:53;17.90;;;8.60;;
51527;SDS011;37612;51.768;21.590;2023-03-01T10:23:00;15.20;;;9.30;;
51527;SDS011;37612;51.768;21.590;2023-03-01T10:27:04;18.40;;;9.30;;
51527;SDS011;37612;51.768;21.590;2023-03-01T10:31:15;14.30;;;7.90;;
51527;SDS011;37612;51.768;21.590;2023-03-01T10:35:22;23.60;;;9.30;;
51527;SDS011;37612;51.768;21.590;2023-03-01T10:39:33;16.70;;;9.50;;
51527;SDS011;37612;51.768;21.590;2023-03-01T10:43:44;16.20;;;8.80;;
51527;SDS011;37612;51.768;21.590;2023-03-01T10:52:19;13.90;;;7.90;;
51527;SDS011;37612;51.768;21.590;2023-03-01T10:56:23;17.70;;;8.60;;
51527;SDS011;37612;51.768;21.590;2023-03-01T11:00:26;17.00;;;7.70;;
51527;SDS011;37612;51.768;21.590;2023-03-01T11:04:28;16.30;;;7.90;;
51527;SDS011;37612;51.768;21.590;2023-03-01T11:08:35;18.90;;;8.70;;
51527;SDS011;37612;51.768;21.590;2023-03-01T11:12:47;20.90;;;9.30;;
51527;SDS011;37612;51.768;21.590;2023-03-01T11:16:57;16.20;;;7.30;;
51527;SDS011;37612;51.768;21.590;2023-03-01T11:21:00;12.40;;;6.80;;
51527;SDS011;37612;51.768;21.590;2023-03-01T11:25:04;14.20;;;6.80;;
51527;SDS011;37612;51.768;21.590;2023-03-01T11:29:12;12.00;;;6.00;;
51527;SDS011;37612;51.768;21.590;2023-03-01T11:33:43;11.00;;;6.10;;
51527;SDS011;37612;51.768;21.590;2023-03-01T11:42:06;11.40;;;6.50;;
51527;SDS011;37612;51.768;21.590;2023-03-01T11:50:38;11.10;;;5.80;;
51527;SDS011;37612;51.768;21.590;2023-03-01T11:59:27;11.00;;;6.00;;
51527;SDS011;37612;51.768;21.590;2023-03-01T12:03:51;9.90;;;5.30;;
51527;SDS011;37612;51.768;21.590;2023-03-01T12:20:56;9.40;;;5.40;;
51527;SDS011;37612;51.768;21.590;2023-03-01T12:25:11;7.20;;;4.50;;
51527;SDS011;37612;51.768;21.590;2023-03-01T12:29:23;7.80;;;4.30;;
51527;SDS011;37612;51.768;21.590;2023-03-01T12:42:35;8.70;;;4.60;;
51527;SDS011;37612;51.768;21.590;2023-03-01T12:51:03;8.60;;;4.70;;
51527;SDS011;37612;51.768;21.590;2023-03-01T12:55:44;9.20;;;4.10;;
51527;SDS011;37612;51.768;21.590;2023-03-01T12:59:51;10.70;;;5.20;;
51527;SDS011;37612;51.768;21.590;2023-03-01T13:04:27;8.90;;;5.40;;
51527;SDS011;37612;51.768;21.590;2023-03-01T13:08:41;9.20;;;4.90;;
51527;SDS011;37612;51.768;21.590;2023-03-01T13:16:57;7.10;;;3.60;;
51527;SDS011;37612;51.768;21.590;2023-03-01T13:20:59;10.10;;;3.90;;
51527;SDS011;37612;51.768;21.590;2023-03-01T13:25:19;21.40;;;10.50;;
51527;SDS011;37612;51.768;21.590;2023-03-01T13:29:27;8.90;;;4.80;;
51527;SDS011;37612;51.768;21.590;2023-03-01T13:37:49;9.40;;;4.90;;
51527;SDS011;37612;51.768;21.590;2023-03-01T13:42:31;19.30;;;10.00;;
51527;SDS011;37612;51.768;21.590;2023-03-01T13:46:38;11.80;;;5.90;;
51527;SDS011;37612;51.768;21.590;2023-03-01T13:50:45;10.30;;;5.00;;
51527;SDS011;37612;51.768;21.590;2023-03-01T13:54:49;7.90;;;4.40;;
51527;SDS011;37612;51.768;21.590;2023-03-01T13:58:55;9.10;;;4.90;;
51527;SDS011;37612;51.768;21.590;2023-03-01T14:03:14;19.20;;;11.30;;
51527;SDS011;37612;51.768;21.590;2023-03-01T14:07:23;8.60;;;5.10;;
51527;SDS011;37612;51.768;21.590;2023-03-01T14:15:42;11.00;;;5.50;;
51527;SDS011;37612;51.768;21.590;2023-03-01T14:24:22;13.30;;;7.10;;
51527;SDS011;37612;51.768;21.590;2023-03-01T14:28:24;11.00;;;6.30;;
51527;SDS011;37612;51.768;21.590;2023-03-01T14:32:29;12.80;;;6.10;;
51527;SDS011;37612;51.768;21.590;2023-03-01T14:36:33;11.90;;;7.70;;
51527;SDS011;37612;51.768;21.590;2023-03-01T14:40:35;26.80;;;14.30;;
51527;SDS011;37612;51.768;21.590;2023-03-01T14:44:37;13.30;;;6.60;;
51527;SDS011;37612;51.768;21.590;2023-03-01T14:48:39;16.00;;;7.40;;
51527;SDS011;37612;51.768;21.590;2023-03-01T14:52:41;13.20;;;6.30;;
51527;SDS011;37612;51.768;21.590;2023-03-01T14:56:46;14.80;;;7.10;;
51527;SDS011;37612;51.768;21.590;2023-03-01T15:04:57;19.10;;;10.30;;
51527;SDS011;37612;51.768;21.590;2023-03-01T15:09:02;14.10;;;7.80;;
51527;SDS011;37612;51.768;21.590;2023-03-01T15:21:33;16.00;;;7.00;;
51527;SDS011;37612;51.768;21.590;2023-03-01T15:25:37;16.10;;;9.10;;
51527;SDS011;37612;51.768;21.590;2023-03-01T15:38:28;32.50;;;17.20;;
51527;SDS011;37612;51.768;21.590;2023-03-01T15:42:36;42.60;;;21.30;;
51527;SDS011;37612;51.768;21.590;2023-03-01T15:46:38;44.30;;;24.60;;
51527;SDS011;37612;51.768;21.590;2023-03-01T15:50:39;52.30;;;24.60;;
51527;SDS011;37612;51.768;21.590;2023-03-01T15:54:44;53.00;;;25.20;;
51527;SDS011;37612;51.768;21.590;2023-03-01T16:02:47;66.50;;;33.50;;
51527;SDS011;37612;51.768;21.590;2023-03-01T16:06:50;22.10;;;11.90;;
51527;SDS011;37612;51.768;21.590;2023-03-01T16:10:55;17.70;;;10.10;;
51527;SDS011;37612;51.768;21.590;2023-03-01T16:14:56;24.60;;;11.40;;
51527;SDS011;37612;51.768;21.590;2023-03-01T16:18:58;27.40;;;12.70;;
51527;SDS011;37612;51.768;21.590;2023-03-01T16:23:03;19.60;;;11.10;;
51527;SDS011;37612;51.768;21.590;2023-03-01T16:27:07;15.90;;;8.50;;
51527;SDS011;37612;51.768;21.590;2023-03-01T16:31:08;21.30;;;10.20;;
51527;SDS011;37612;51.768;21.590;2023-03-01T16:35:11;17.80;;;9.10;;
51527;SDS011;37612;51.768;21.590;2023-03-01T16:39:13;17.50;;;8.80;;
51527;SDS011;37612;51.768;21.590;2023-03-01T16:43:14;18.60;;;9.60;;
51527;SDS011;37612;51.768;21.590;2023-03-01T16:47:16;21.70;;;10.60;;
51527;SDS011;37612;51.768;21.590;2023-03-01T16:51:17;18.60;;;10.20;;
51527;SDS011;37612;51.768;21.590;2023-03-01T16:55:20;20.90;;;11.00;;
51527;SDS011;37612;51.768;21.590;2023-03-01T16:59:21;18.70;;;10.10;;
51527;SDS011;37612;51.768;21.590;2023-03-01T17:03:24;20.20;;;9.50;;
51527;SDS011;37612;51.768;21.590;2023-03-01T17:07:26;21.10;;;10.30;;
51527;SDS011;37612;51.768;21.590;2023-03-01T17:11:28;31.20;;;15.40;;
51527;SDS011;37612;51.768;21.590;2023-03-01T17:15:29;24.10;;;12.20;;
51527;SDS011;37612;51.768;21.590;2023-03-01T17:19:30;28.50;;;12.70;;
51527;SDS011;37612;51.768;21.590;2023-03-01T17:23:32;60.00;;;24.30;;
51527;SDS011;37612;51.768;21.590;2023-03-01T17:27:36;93.40;;;41.00;;
51527;SDS011;37612;51.768;21.590;2023-03-01T17:31:38;48.30;;;23.20;;
51527;SDS011;37612;51.768;21.590;2023-03-01T17:35:40;59.40;;;26.90;;
51527;SDS011;37612;51.768;21.590;2023-03-01T17:39:41;72.10;;;36.20;;
51527;SDS011;37612;51.768;21.590;2023-03-01T17:43:42;66.30;;;31.60;;
51527;SDS011;37612;51.768;21.590;2023-03-01T17:47:47;64.30;;;31.60;;
51527;SDS011;37612;51.768;21.590;2023-03-01T17:51:48;92.60;;;39.40;;
51527;SDS011;37612;51.768;21.590;2023-03-01T17:55:57;81.80;;;36.70;;
51527;SDS011;37612;51.768;21.590;2023-03-01T18:00:01;68.60;;;32.40;;
51527;SDS011;37612;51.768;21.590;2023-03-01T18:04:02;120.30;;;49.60;;
51527;SDS011;37612;51.768;21.590;2023-03-01T18:08:03;75.40;;;33.90;;
51527;SDS011;37612;51.768;21.590;2023-03-01T18:12:04;119.70;;;48.80;;
51527;SDS011;37612;51.768;21.590;2023-03-01T18:16:07;144.00;;;57.10;;
51527;SDS011;37612;51.768;21.590;2023-03-01T18:20:10;147.70;;;60.50;;
51527;SDS011;37612;51.768;21.590;2023-03-01T18:24:13;172.80;;;64.10;;
51527;SDS011;37612;51.768;21.590;2023-03-01T18:28:14;140.60;;;55.30;;
51527;SDS011;37612;51.768;21.590;2023-03-01T18:32:16;96.70;;;41.20;;
51527;SDS011;37612;51.768;21.590;2023-03-01T18:36:21;93.50;;;39.50;;
51527;SDS011;37612;51.768;21.590;2023-03-01T18:40:29;73.70;;;29.80;;
51527;SDS011;37612;51.768;21.590;2023-03-01T18:44:34;70.50;;;31.60;;
51527;SDS011;37612;51.768;21.590;2023-03-01T18:48:38;72.90;;;33.00;;
51527;SDS011;37612;51.768;21.590;2023-03-01T18:52:40;89.40;;;38.60;;
51527;SDS011;37612;51.768;21.590;2023-03-01T18:56:42;76.40;;;34.70;;
51527;SDS011;37612;51.768;21.590;2023-03-01T19:00:44;72.30;;;31.60;;
51527;SDS011;37612;51.768;21.590;2023-03-01T19:08:51;51.20;;;21.60;;
51527;SDS011;37612;51.768;21.590;2023-03-01T19:12:57;55.60;;;26.20;;
51527;SDS011;37612;51.768;21.590;2023-03-01T19:16:58;64.20;;;30.00;;
51527;SDS011;37612;51.768;21.590;2023-03-01T19:21:02;85.90;;;34.60;;
51527;SDS011;37612;51.768;21.590;2023-03-01T19:25:08;58.70;;;25.90;;
51527;SDS011;37612;51.768;21.590;2023-03-01T19:29:09;71.50;;;29.30;;
51527;SDS011;37612;51.768;21.590;2023-03-01T19:33:11;57.90;;;24.80;;
51527;SDS011;37612;51.768;21.590;2023-03-01T19:37:12;62.70;;;25.80;;
51527;SDS011;37612;51.768;21.590;2023-03-01T19:41:56;62.90;;;27.00;;
51527;SDS011;37612;51.768;21.590;2023-03-01T19:45:59;46.50;;;21.80;;
51527;SDS011;37612;51.768;21.590;2023-03-01T19:50:01;47.60;;;21.20;;
51527;SDS011;37612;51.768;21.590;2023-03-01T19:54:02;50.90;;;24.10;;
51527;SDS011;37612;51.768;21.590;2023-03-01T19:58:07;85.80;;;34.20;;
51527;SDS011;37612;51.768;21.590;2023-03-01T20:02:10;74.00;;;30.20;;
51527;SDS011;37612;51.768;21.590;2023-03-01T20:06:13;61.70;;;29.10;;
51527;SDS011;37612;51.768;21.590;2023-03-01T20:10:16;75.80;;;32.00;;
51527;SDS011;37612;51.768;21.590;2023-03-01T20:14:18;79.20;;;32.10;;
51527;SDS011;37612;51.768;21.590;2023-03-01T20:18:19;86.30;;;34.10;;
51527;SDS011;37612;51.768;21.590;2023-03-01T20:22:20;80.20;;;32.00;;
51527;SDS011;37612;51.768;21.590;2023-03-01T20:26:22;69.80;;;31.10;;
51527;SDS011;37612;51.768;21.590;2023-03-01T20:30:25;85.80;;;34.60;;
51527;SDS011;37612;51.768;21.590;2023-03-01T20:34:26;79.50;;;33.00;;
51527;SDS011;37612;51.768;21.590;2023-03-01T20:38:27;66.00;;;30.40;;
51527;SDS011;37612;51.768;21.590;2023-03-01T20:42:29;60.90;;;29.10;;
51527;SDS011;37612;51.768;21.590;2023-03-01T20:46:30;61.00;;;27.80;;
51527;SDS011;37612;51.768;21.590;2023-03-01T20:50:33;56.00;;;26.50;;
51527;SDS011;37612;51.768;21.590;2023-03-01T20:54:34;57.10;;;27.90;;
51527;SDS011;37612;51.768;21.590;2023-03-01T20:58:36;67.40;;;32.30;;
51527;SDS011;37612;51.768;21.590;2023-03-01T21:02:38;67.60;;;30.70;;
51527;SDS011;37612;51.768;21.590;2023-03-01T21:06:40;58.40;;;27.20;;
51527;SDS011;37612;51.768;21.590;2023-03-01T21:10:48;59.10;;;28.10;;
51527;SDS011;37612;51.768;21.590;2023-03-01T21:14:50;63.70;;;29.20;;
51527;SDS011;37612;51.768;21.590;2023-03-01T21:18:51;63.80;;;30.90;;
51527;SDS011;37612;51.768;21.590;2023-03-01T21:22:53;62.10;;;28.00;;
51527;SDS011;37612;51.768;21.590;2023-03-01T21:26:54;54.90;;;27.80;;
51527;SDS011;37612;51.768;21.590;2023-03-01T21:31:04;55.50;;;28.20;;
51527;SDS011;37612;51.768;21.590;2023-03-01T21:35:20;72.00;;;34.40;;
51527;SDS011;37612;51.768;21.590;2023-03-01T21:39:21;77.30;;;35.00;;
51527;SDS011;37612;51.768;21.590;2023-03-01T21:43:28;73.70;;;32.40;;
51527;SDS011;37612;51.768;21.590;2023-03-01T21:47:30;61.50;;;29.80;;
51527;SDS011;37612;51.768;21.590;2023-03-01T21:51:31;60.80;;;28.20;;
51527;SDS011;37612;51.768;21.590;2023-03-01T21:55:34;75.90;;;33.80;;
51527;SDS011;37612;51.768;21.590;2023-03-01T21:59:35;81.10;;;35.40;;
51527;SDS011;37612;51.768;21.590;2023-03-01T22:03:37;78.40;;;34.20;;
51527;SDS011;37612;51.768;21.590;2023-03-01T22:07:44;130.80;;;52.30;;
51527;SDS011;37612;51.768;21.590;2023-03-01T22:11:49;116.50;;;49.70;;
51527;SDS011;37612;51.768;21.590;2023-03-01T22:15:54;141.70;;;58.40;;
51527;SDS011;37612;51.768;21.590;2023-03-01T22:19:55;93.50;;;38.80;;
51527;SDS011;37612;51.768;21.590;2023-03-01T22:23:56;75.30;;;31.90;;
51527;SDS011;37612;51.768;21.590;2023-03-01T22:27:57;74.60;;;32.30;;
51527;SDS011;37612;51.768;21.590;2023-03-01T22:31:59;76.60;;;30.90;;
51527;SDS011;37612;51.768;21.590;2023-03-01T22:36:00;76.10;;;34.90;;
51527;SDS011;37612;51.768;21.590;2023-03-01T22:40:02;65.40;;;32.80;;
51527;SDS011;37612;51.768;21.590;2023-03-01T22:44:04;72.10;;;33.10;;
51527;SDS011;37612;51.768;21.590;2023-03-01T22:48:05;76.10;;;32.20;;
51527;SDS011;37612;51.768;21.590;2023-03-01T22:52:07;68.60;;;32.20;;
51527;SDS011;37612;51.768;21.590;2023-03-01T22:56:09;75.90;;;35.50;;
51527;SDS011;37612;51.768;21.590;2023-03-01T23:00:15;69.30;;;32.50;;
51527;SDS011;37612;51.768;21.590;2023-03-01T23:04:17;67.70;;;29.40;;
51527;SDS011;37612;51.768;21.590;2023-03-01T23:08:20;57.60;;;28.50;;
51527;SDS011;37612;51.768;21.590;2023-03-01T23:12:21;68.50;;;29.90;;
51527;SDS011;37612;51.768;21.590;2023-03-01T23:16:23;66.60;;;31.00;;
51527;SDS011;37612;51.768;21.590;2023-03-01T23:20:26;60.30;;;29.60;;
51527;SDS011;37612;51.768;21.590;2023-03-01T23:24:27;68.50;;;30.80;;
51527;SDS011;37612;51.768;21.590;2023-03-01T23:28:31;63.10;;;29.30;;
51527;SDS011;37612;51.768;21.590;2023-03-01T23:32:32;60.50;;;30.20;;
51527;SDS011;37612;51.768;21.590;2023-03-01T23:36:40;75.00;;;34.50;;
51527;SDS011;37612;51.768;21.590;2023-03-01T23:40:45;48.90;;;24.00;;
51527;SDS011;37612;51.768;21.590;2023-03-01T23:44:47;52.80;;;24.00;;
51527;SDS011;37612;51.768;21.590;2023-03-01T23:48:48;53.70;;;26.10;;
51527;SDS011;37612;51.768;21.590;2023-03-01T23:52:50;65.50;;;29.30;;
51527;SDS011;37612;51.768;21.590;2023-03-01T23:56:53;69.30;;;32.10;;
